Time;durP1;ratioP1;P1;durP2;ratioP2;P2;SDS_P1;SDS_P2;PMS_P1;PMS_P2;Temp;Humidity;BMP_temperature;BMP_pressure;BME280_temperature;BME280_humidity;BME280_pressure;Samples;Min_cycle;Max_cycle;Signal;HPM_P1;HPM_P2
2021/09/19 00:00:14;;;;;;;1.08;0.98;;;21.20;66.50;;;;;;5133779;28;20086;-36
2021/09/19 00:02:41;;;;;;;0.75;0.75;;;21.20;66.10;;;;;;5140419;28;20024;-36
2021/09/19 00:05:08;;;;;;;0.80;0.80;;;21.20;66.60;;;;;;5126570;28;20036;-36
2021/09/19 00:07:34;;;;;;;0.98;0.80;;;21.20;66.90;;;;;;5119761;28;20011;-37
2021/09/19 00:10:00;;;;;;;0.80;0.80;;;21.20;67.20;;;;;;5122643;28;20549;-37
2021/09/19 00:12:27;;;;;;;1.00;0.90;;;21.10;67.00;;;;;;5122584;28;20028;-36
2021/09/19 00:14:53;;;;;;;0.80;0.80;;;21.10;66.90;;;;;;5122377;28;20035;-36
2021/09/19 00:17:19;;;;;;;2.00;0.80;;;21.10;67.60;;;;;;5122551;28;20027;-37
2021/09/19 00:19:45;;;;;;;0.95;0.93;;;21.10;67.20;;;;;;5122488;28;20125;-38
2021/09/19 00:22:12;;;;;;;1.13;1.03;;;21.10;66.50;;;;;;5122488;28;20020;-36
2021/09/19 00:24:38;;;;;;;0.70;0.70;;;21.10;66.40;;;;;;5122669;28;20032;-36
2021/09/19 00:27:04;;;;;;;0.93;0.93;;;21.00;66.70;;;;;;5121086;28;20015;-36
2021/09/19 00:29:31;;;;;;;0.88;0.82;;;21.00;66.70;;;;;;5107285;28;20062;-36
2021/09/19 00:31:57;;;;;;;0.98;0.90;;;21.00;67.00;;;;;;5124170;28;20016;-37
2021/09/19 00:34:23;;;;;;;0.85;0.85;;;21.00;66.40;;;;;;5125777;28;20061;-37
2021/09/19 00:36:49;;;;;;;1.00;0.90;;;20.90;66.60;;;;;;5107803;28;20121;-36
2021/09/19 00:39:15;;;;;;;1.10;1.00;;;20.90;66.90;;;;;;5117667;28;20028;-36
2021/09/19 00:41:42;;;;;;;0.82;0.80;;;20.90;67.70;;;;;;5125694;28;20027;-36
2021/09/19 00:44:09;;;;;;;1.20;1.10;;;20.90;68.00;;;;;;5125719;28;20032;-37
2021/09/19 00:46:35;;;;;;;0.98;0.98;;;20.90;70.70;;;;;;5107713;28;20075;-36
2021/09/19 00:49:01;;;;;;;0.90;0.90;;;20.90;70.30;;;;;;5125515;28;20061;-36
2021/09/19 00:51:28;;;;;;;0.80;0.80;;;20.90;70.30;;;;;;5107543;28;20027;-37
2021/09/19 00:53:55;;;;;;;1.17;1.02;;;21.00;71.30;;;;;;5125720;28;20035;-37
2021/09/19 00:56:24;;;;;;;1.20;1.10;;;21.00;70.60;;;;;;5107795;28;20042;-37
2021/09/19 00:58:51;;;;;;;1.27;0.90;;;21.00;70.40;;;;;;5125698;28;20028;-36
2021/09/19 01:01:18;;;;;;;2.53;1.10;;;21.00;70.90;;;;;;5124944;28;20020;-37
2021/09/19 01:03:44;;;;;;;1.07;0.97;;;21.10;71.70;;;;;;5124846;28;20121;-37
2021/09/19 01:06:11;;;;;;;2.95;0.90;;;21.10;71.50;;;;;;5124771;28;20268;-37
2021/09/19 01:08:42;;;;;;;3.33;0.97;;;21.10;71.10;;;;;;5124415;28;20027;-37
2021/09/19 01:11:13;;;;;;;1.08;0.88;;;21.10;70.80;;;;;;5107206;28;20027;-36
2021/09/19 01:13:43;;;;;;;2.08;0.90;;;21.10;71.10;;;;;;5125117;28;20035;-37
2021/09/19 01:16:10;;;;;;;1.13;1.02;;;21.10;71.20;;;;;;5124520;28;20035;-37
2021/09/19 01:18:37;;;;;;;1.20;1.10;;;21.20;70.60;;;;;;5118291;28;20020;-37
2021/09/19 01:21:03;;;;;;;;;;;21.20;71.70;;;;;;5089595;28;20036;-37
2021/09/19 01:23:30;;;;;;;1.20;1.10;;;21.20;72.50;;;;;;5124442;28;19935;-37
2021/09/19 01:25:57;;;;;;;1.25;1.10;;;21.20;72.00;;;;;;5124287;28;20381;-37
2021/09/19 01:28:23;;;;;;;0.93;0.93;;;21.30;71.00;;;;;;5124548;28;20035;-36
2021/09/19 01:30:49;;;;;;;2.17;1.20;;;21.30;72.10;;;;;;5124550;28;20039;-37
2021/09/19 01:33:16;;;;;;;0.90;0.80;;;21.30;72.40;;;;;;5124787;28;20077;-37
2021/09/19 01:35:42;;;;;;;1.27;1.02;;;21.30;71.90;;;;;;5124553;28;20555;-37
2021/09/19 01:38:08;;;;;;;1.13;1.10;;;21.40;70.90;;;;;;5123962;28;20442;-37
2021/09/19 01:40:34;;;;;;;1.20;1.10;;;21.40;72.30;;;;;;5124661;28;20042;-37
2021/09/19 01:43:01;;;;;;;2.08;1.00;;;21.40;72.40;;;;;;5124279;28;20027;-37
2021/09/19 01:45:28;;;;;;;1.13;1.03;;;21.40;72.00;;;;;;5124785;28;20078;-37
2021/09/19 01:47:54;;;;;;;1.23;1.13;;;21.40;72.20;;;;;;5124146;28;20032;-37
2021/09/19 01:50:21;;;;;;;0.93;0.93;;;21.50;71.90;;;;;;5104274;28;20044;-37
2021/09/19 01:52:48;;;;;;;1.02;0.93;;;21.50;72.10;;;;;;5123029;28;20043;-37
2021/09/19 01:55:14;;;;;;;1.20;1.10;;;21.50;72.20;;;;;;5108231;28;20024;-37
2021/09/19 01:57:43;;;;;;;1.25;1.15;;;21.50;72.20;;;;;;5114364;28;20054;-37
2021/09/19 02:00:09;;;;;;;2.42;1.02;;;21.50;72.60;;;;;;5124815;28;20034;-37
2021/09/19 02:02:36;;;;;;;1.30;1.20;;;21.50;72.50;;;;;;5124087;28;20132;-37
2021/09/19 02:05:03;;;;;;;1.95;1.10;;;21.60;72.20;;;;;;5124713;28;20035;-37
2021/09/19 02:07:30;;;;;;;1.05;1.00;;;21.60;72.70;;;;;;5124692;28;20073;-37
2021/09/19 02:09:56;;;;;;;1.17;1.07;;;21.60;72.60;;;;;;5115766;28;20024;-37
2021/09/19 02:12:22;;;;;;;1.23;1.05;;;21.60;72.80;;;;;;5103932;28;20027;-37
2021/09/19 02:14:48;;;;;;;1.10;1.05;;;21.70;73.00;;;;;;5104053;28;20042;-37
2021/09/19 02:17:15;;;;;;;1.25;1.10;;;21.70;72.30;;;;;;5103757;28;20028;-37
2021/09/19 02:19:41;;;;;;;1.13;1.02;;;21.70;72.10;;;;;;5119487;28;20060;-37
2021/09/19 02:22:11;;;;;;;1.10;0.90;;;21.70;72.20;;;;;;5123857;28;20032;-37
2021/09/19 02:24:38;;;;;;;1.50;1.40;;;21.70;72.40;;;;;;5105975;28;20114;-37
2021/09/19 02:27:04;;;;;;;1.30;1.20;;;21.70;72.10;;;;;;5124187;28;20020;-37
2021/09/19 02:29:31;;;;;;;1.20;1.10;;;21.80;72.20;;;;;;5124300;28;20032;-37
2021/09/19 02:31:57;;;;;;;1.25;1.13;;;21.80;72.00;;;;;;5123718;28;20027;-37
2021/09/19 02:34:23;;;;;;;1.38;1.27;;;21.80;72.10;;;;;;5124133;28;20035;-37
2021/09/19 02:36:50;;;;;;;1.42;1.20;;;21.80;72.30;;;;;;5124133;28;20023;-37
2021/09/19 02:39:16;;;;;;;2.17;1.40;;;21.80;72.50;;;;;;5105814;28;20042;-37
2021/09/19 02:41:42;;;;;;;1.17;1.08;;;21.80;72.90;;;;;;5107078;28;20818;-37
2021/09/19 02:44:08;;;;;;;1.27;1.17;;;21.80;72.90;;;;;;5103548;28;20024;-37
2021/09/19 02:46:34;;;;;;;1.33;1.20;;;21.90;73.00;;;;;;5103446;28;20012;-37
2021/09/19 02:49:01;;;;;;;1.85;1.27;;;21.90;73.80;;;;;;5113085;28;20145;-37
2021/09/19 02:51:27;;;;;;;1.40;1.30;;;21.90;73.10;;;;;;5123926;28;20023;-36
2021/09/19 02:53:54;;;;;;;1.20;1.10;;;21.90;73.00;;;;;;5123075;28;20099;-37
2021/09/19 02:56:20;;;;;;;1.85;1.17;;;21.90;73.00;;;;;;5122620;28;20070;-37
2021/09/19 02:58:46;;;;;;;1.63;1.52;;;21.90;72.80;;;;;;5123962;28;20057;-37
2021/09/19 03:01:12;;;;;;;1.20;1.10;;;21.90;72.70;;;;;;5123445;28;20035;-37
2021/09/19 03:03:38;;;;;;;2.33;1.13;;;22.00;72.80;;;;;;5123474;28;20016;-37
2021/09/19 03:06:05;;;;;;;1.30;1.20;;;22.00;72.90;;;;;;5121994;28;20030;-37
2021/09/19 03:08:31;;;;;;;1.50;1.40;;;22.00;72.90;;;;;;5113710;28;20075;-37
2021/09/19 03:10:57;;;;;;;2.05;1.08;;;22.00;72.80;;;;;;5121308;28;20046;-37
2021/09/19 03:13:23;;;;;;;1.48;1.30;;;22.00;72.90;;;;;;5123172;28;20024;-37
2021/09/19 03:15:49;;;;;;;1.27;1.13;;;22.00;72.70;;;;;;5123522;28;20122;-37
2021/09/19 03:18:15;;;;;;;1.67;1.30;;;22.00;72.90;;;;;;5123391;28;20058;-37
2021/09/19 03:20:42;;;;;;;1.30;1.20;;;22.00;72.90;;;;;;5121974;28;20027;-37
2021/09/19 03:23:08;;;;;;;1.30;1.20;;;22.10;72.90;;;;;;5121059;28;20038;-37
2021/09/19 03:25:34;;;;;;;1.38;1.27;;;22.10;72.90;;;;;;5122915;28;20031;-37
2021/09/19 03:28:01;;;;;;;1.55;1.45;;;22.10;72.70;;;;;;5123213;28;20103;-37
2021/09/19 03:30:27;;;;;;;1.10;1.00;;;22.10;72.70;;;;;;5123111;28;20476;-37
2021/09/19 03:32:53;;;;;;;1.40;1.30;;;22.10;72.60;;;;;;5122400;28;20035;-37
2021/09/19 03:35:19;;;;;;;2.20;1.30;;;22.10;72.60;;;;;;5122844;28;20024;-37
2021/09/19 03:37:45;;;;;;;1.40;1.30;;;22.10;72.60;;;;;;5123023;28;20124;-37
2021/09/19 03:40:12;;;;;;;1.38;1.27;;;22.10;72.70;;;;;;5122641;28;20058;-37
2021/09/19 03:42:38;;;;;;;1.35;1.25;;;22.20;72.70;;;;;;5122734;28;20063;-37
2021/09/19 03:45:05;;;;;;;1.40;1.30;;;22.20;72.60;;;;;;5122578;28;20032;-37
2021/09/19 03:47:33;;;;;;;1.50;1.40;;;22.20;72.60;;;;;;5122525;28;20290;-37
2021/09/19 03:49:59;;;;;;;1.50;1.40;;;22.20;72.60;;;;;;5121371;28;20050;-37
2021/09/19 03:52:25;;;;;;;0.93;0.93;;;22.20;72.50;;;;;;5122984;28;20020;-37
2021/09/19 03:54:51;;;;;;;1.25;1.15;;;22.20;72.40;;;;;;5121964;28;20047;-37
2021/09/19 03:57:18;;;;;;;1.48;1.30;;;22.20;72.40;;;;;;5108106;28;20027;-37
2021/09/19 03:59:44;;;;;;;1.75;1.30;;;22.20;72.30;;;;;;5120477;28;20050;-37
2021/09/19 04:02:10;;;;;;;1.20;1.10;;;22.20;72.30;;;;;;5122877;28;20027;-37
2021/09/19 04:04:36;;;;;;;1.45;1.35;;;22.20;72.30;;;;;;5122678;28;20054;-37
2021/09/19 04:07:02;;;;;;;1.50;1.40;;;22.20;72.30;;;;;;5124715;28;20016;-37
2021/09/19 04:09:29;;;;;;;1.45;1.35;;;22.30;72.40;;;;;;5126881;28;20028;-37
2021/09/19 04:11:56;;;;;;;1.42;1.30;;;22.30;72.40;;;;;;5120411;28;20028;-37
2021/09/19 04:14:23;;;;;;;1.58;1.40;;;22.30;72.40;;;;;;5126200;28;20039;-37
2021/09/19 04:16:49;;;;;;;1.50;1.30;;;22.30;72.40;;;;;;5124783;28;20111;-37
2021/09/19 04:19:15;;;;;;;1.70;1.20;;;22.30;72.40;;;;;;5126356;28;20047;-37
2021/09/19 04:21:42;;;;;;;1.42;1.30;;;22.30;72.30;;;;;;5125131;28;20020;-37
2021/09/19 04:24:08;;;;;;;1.25;1.15;;;22.30;72.40;;;;;;5110557;28;20016;-37
2021/09/19 04:26:34;;;;;;;2.38;1.40;;;22.30;72.30;;;;;;5125841;28;20027;-37
2021/09/19 04:29:00;;;;;;;1.50;1.40;;;22.30;72.30;;;;;;5126508;28;20034;-37
2021/09/19 04:31:26;;;;;;;1.30;1.20;;;22.30;72.30;;;;;;5125574;28;20035;-37
2021/09/19 04:33:52;;;;;;;1.40;1.30;;;22.30;72.20;;;;;;5126094;28;20158;-37
2021/09/19 04:36:19;;;;;;;1.70;1.17;;;22.30;72.20;;;;;;5125878;28;20050;-37
2021/09/19 04:38:45;;;;;;;1.50;1.40;;;22.30;72.10;;;;;;5126237;28;20061;-37
2021/09/19 04:41:11;;;;;;;1.30;1.20;;;22.30;72.10;;;;;;5123078;28;20736;-37
2021/09/19 04:43:37;;;;;;;1.50;1.40;;;22.40;72.10;;;;;;5125885;28;20048;-37
2021/09/19 04:46:03;;;;;;;2.95;1.38;;;22.40;72.90;;;;;;5125499;28;20031;-37
2021/09/19 04:48:30;;;;;;;1.38;1.27;;;22.40;72.20;;;;;;5125909;28;20047;-37
2021/09/19 04:50:56;;;;;;;1.50;1.40;;;22.40;72.30;;;;;;5125435;28;20096;-37
2021/09/19 04:53:22;;;;;;;1.35;1.20;;;22.40;72.30;;;;;;5125745;28;20031;-37
2021/09/19 04:55:48;;;;;;;1.30;1.20;;;22.40;72.30;;;;;;5125299;28;20035;-37
2021/09/19 04:58:14;;;;;;;1.45;1.33;;;22.40;72.30;;;;;;5125642;28;20649;-37
2021/09/19 05:00:40;;;;;;;1.83;1.50;;;22.40;72.20;;;;;;5125618;28;20027;-37
2021/09/19 05:03:07;;;;;;;1.20;1.10;;;22.40;72.30;;;;;;5125740;28;20038;-37
2021/09/19 05:05:33;;;;;;;1.33;1.23;;;22.40;72.20;;;;;;5125338;28;20030;-37
2021/09/19 05:07:59;;;;;;;1.55;1.45;;;22.40;72.20;;;;;;5108620;28;20015;-37
2021/09/19 05:10:25;;;;;;;2.13;1.20;;;22.40;72.10;;;;;;5125301;28;20047;-37
2021/09/19 05:12:51;;;;;;;1.30;1.20;;;22.40;72.20;;;;;;5125844;28;20032;-38
2021/09/19 05:15:17;;;;;;;1.35;1.25;;;22.40;72.20;;;;;;5125407;28;20031;-37
2021/09/19 05:17:44;;;;;;;2.20;1.23;;;22.40;72.00;;;;;;5124145;28;20027;-38
2021/09/19 05:20:10;;;;;;;2.15;1.40;;;22.50;72.20;;;;;;5112409;28;20036;-37
2021/09/19 05:22:36;;;;;;;1.45;1.20;;;22.50;72.20;;;;;;5125657;28;20028;-37
2021/09/19 05:25:03;;;;;;;1.30;1.20;;;22.50;72.10;;;;;;5125450;28;20024;-37
2021/09/19 05:27:29;;;;;;;1.40;1.30;;;22.50;72.20;;;;;;5125339;28;20047;-37
2021/09/19 05:29:55;;;;;;;1.73;1.20;;;22.50;72.10;;;;;;5124333;28;20287;-38
2021/09/19 05:32:21;;;;;;;1.52;1.42;;;22.50;72.10;;;;;;5124181;28;20031;-37
2021/09/19 05:34:47;;;;;;;1.20;1.10;;;22.50;72.10;;;;;;5124565;28;20095;-37
2021/09/19 05:37:14;;;;;;;1.77;1.50;;;22.50;72.20;;;;;;5123977;28;20487;-37
2021/09/19 05:39:40;;;;;;;2.30;1.23;;;22.50;72.20;;;;;;5124667;28;20251;-37
2021/09/19 05:42:06;;;;;;;1.40;1.30;;;22.50;72.10;;;;;;5121444;28;20024;-37
2021/09/19 05:44:32;;;;;;;1.40;1.30;;;22.50;72.10;;;;;;5123588;28;20050;-37
2021/09/19 05:46:58;;;;;;;1.33;1.23;;;22.50;72.10;;;;;;5123939;28;20019;-37
2021/09/19 05:49:25;;;;;;;1.33;1.23;;;22.50;72.10;;;;;;5124327;28;20055;-37
2021/09/19 05:51:51;;;;;;;2.08;1.50;;;22.50;72.20;;;;;;5123796;28;20035;-37
2021/09/19 05:54:17;;;;;;;1.60;1.20;;;22.50;72.20;;;;;;5124467;28;20036;-37
2021/09/19 05:56:43;;;;;;;1.60;1.50;;;22.50;72.30;;;;;;5123520;28;20102;-37
2021/09/19 05:59:09;;;;;;;1.40;1.30;;;22.50;72.20;;;;;;5123696;28;20032;-37
2021/09/19 06:01:35;;;;;;;1.48;1.20;;;22.50;72.30;;;;;;5118250;28;20122;-37
2021/09/19 06:04:02;;;;;;;2.55;1.50;;;22.60;72.30;;;;;;5123569;28;20031;-38
2021/09/19 06:06:28;;;;;;;1.40;1.30;;;22.60;72.30;;;;;;5123316;28;20027;-37
2021/09/19 06:08:54;;;;;;;1.77;1.67;;;22.60;72.30;;;;;;5123962;28;20023;-37
2021/09/19 06:11:20;;;;;;;1.75;1.50;;;22.60;72.40;;;;;;5114741;28;20024;-37
2021/09/19 06:13:46;;;;;;;1.30;1.20;;;22.60;72.30;;;;;;5115300;28;20091;-37
2021/09/19 06:16:12;;;;;;;1.60;1.50;;;22.60;72.30;;;;;;5123091;28;20039;-37
2021/09/19 06:18:39;;;;;;;2.13;1.30;;;22.60;72.40;;;;;;5123209;28;20527;-37
2021/09/19 06:21:05;;;;;;;1.65;1.27;;;22.60;72.40;;;;;;5123511;28;20082;-37
2021/09/19 06:23:31;;;;;;;1.50;1.40;;;22.60;72.30;;;;;;5123347;28;20028;-37
2021/09/19 06:25:58;;;;;;;1.52;1.42;;;22.60;72.30;;;;;;5123608;28;20059;-37
2021/09/19 06:28:24;;;;;;;2.17;1.40;;;22.60;72.30;;;;;;5123108;28;20083;-37
2021/09/19 06:30:50;;;;;;;1.08;1.08;;;22.60;72.40;;;;;;5122964;28;20100;-37
2021/09/19 06:33:16;;;;;;;1.45;1.35;;;22.60;72.40;;;;;;5105636;28;20015;-37
2021/09/19 06:35:43;;;;;;;2.17;1.20;;;22.60;72.30;;;;;;5123879;28;20089;-37
2021/09/19 06:38:09;;;;;;;1.60;1.50;;;22.60;72.30;;;;;;5121895;28;20019;-36
2021/09/19 06:40:35;;;;;;;1.60;1.50;;;22.60;72.40;;;;;;5122587;28;20047;-37
2021/09/19 06:43:02;;;;;;;2.45;1.50;;;22.60;72.40;;;;;;5122951;28;20524;-38
2021/09/19 06:45:28;;;;;;;1.50;1.40;;;22.60;72.40;;;;;;5123937;28;20024;-37
2021/09/19 06:47:54;;;;;;;1.50;1.40;;;22.60;72.50;;;;;;5122710;28;20288;-37
2021/09/19 06:50:20;;;;;;;2.28;1.40;;;22.60;72.50;;;;;;5122647;28;20051;-37
2021/09/19 06:52:46;;;;;;;1.42;1.27;;;22.60;72.50;;;;;;5123037;28;20027;-37
2021/09/19 06:55:12;;;;;;;1.48;1.38;;;22.70;72.50;;;;;;5123172;28;20138;-37
2021/09/19 06:57:39;;;;;;;1.98;1.40;;;22.70;72.60;;;;;;5122966;28;20469;-37
2021/09/19 07:00:05;;;;;;;1.40;1.30;;;22.70;72.50;;;;;;5123478;28;20103;-37
2021/09/19 07:02:32;;;;;;;1.38;1.23;;;22.70;73.20;;;;;;5123695;28;20031;-37
2021/09/19 07:04:58;;;;;;;1.55;1.45;;;22.70;72.50;;;;;;5123686;28;20492;-37
2021/09/19 07:07:25;;;;;;;1.65;1.55;;;22.70;72.50;;;;;;5123513;28;20108;-38
2021/09/19 07:09:51;;;;;;;1.75;1.60;;;22.70;72.60;;;;;;5123884;28;20063;-37
2021/09/19 07:12:17;;;;;;;2.13;1.40;;;22.70;72.60;;;;;;5123686;28;20050;-37
2021/09/19 07:14:44;;;;;;;1.73;1.60;;;22.70;72.60;;;;;;5123291;28;20111;-37
2021/09/19 07:17:10;;;;;;;2.72;1.45;;;22.70;72.60;;;;;;5123152;28;20032;-37
2021/09/19 07:19:36;;;;;;;1.48;1.38;;;22.70;72.70;;;;;;5108958;28;20028;-37
2021/09/19 07:22:02;;;;;;;1.50;1.40;;;22.70;72.60;;;;;;5107452;28;20083;-37
2021/09/19 07:24:28;;;;;;;1.60;1.50;;;22.70;72.60;;;;;;5103083;28;20024;-37
2021/09/19 07:26:54;;;;;;;1.30;1.20;;;22.70;72.70;;;;;;5103160;28;20035;-37
2021/09/19 07:29:21;;;;;;;1.55;1.38;;;22.70;72.70;;;;;;5114066;28;20020;-37
2021/09/19 07:31:51;;;;;;;1.70;1.60;;;22.70;72.70;;;;;;5123124;28;20057;-37
2021/09/19 07:34:18;;;;;;;1.65;1.50;;;22.70;72.80;;;;;;5123533;28;20359;-37
2021/09/19 07:36:44;;;;;;;1.80;1.70;;;22.70;72.70;;;;;;5123568;28;20027;-37
2021/09/19 07:39:10;;;;;;;1.77;1.67;;;22.70;72.30;;;;;;5088316;28;20024;-37
2021/09/19 07:41:37;;;;;;;2.03;1.90;;;22.70;71.60;;;;;;5124742;28;20028;-37
2021/09/19 07:44:03;;;;;;;1.70;1.60;;;22.70;72.00;;;;;;5127646;28;20024;-37
2021/09/19 07:46:30;;;;;;;1.67;1.58;;;22.70;72.60;;;;;;5127325;28;20039;-37
2021/09/19 07:48:56;;;;;;;1.53;1.43;;;22.70;72.70;;;;;;5118798;28;20055;-37
2021/09/19 07:51:23;;;;;;;1.70;1.60;;;22.70;72.80;;;;;;5127273;28;20263;-37
2021/09/19 07:53:51;;;;;;;1.80;1.60;;;22.70;72.70;;;;;;5127236;28;20162;-37
2021/09/19 07:56:17;;;;;;;1.90;1.48;;;22.70;72.60;;;;;;5126950;28;20489;-37
2021/09/19 07:58:43;;;;;;;1.60;1.50;;;22.70;72.60;;;;;;5108965;28;20034;-37
2021/09/19 08:01:09;;;;;;;1.70;1.60;;;22.70;72.40;;;;;;5127270;28;20024;-37
2021/09/19 08:03:35;;;;;;;1.88;1.67;;;22.70;72.20;;;;;;5124973;28;20048;-37
2021/09/19 08:06:02;;;;;;;1.70;1.60;;;22.70;72.00;;;;;;5126987;28;20040;-37
2021/09/19 08:08:28;;;;;;;1.67;1.58;;;22.70;71.10;;;;;;5126132;28;20020;-37
2021/09/19 08:10:54;;;;;;;1.60;1.50;;;22.70;70.60;;;;;;5126710;28;20034;-37
2021/09/19 08:13:20;;;;;;;1.75;1.50;;;22.70;70.60;;;;;;5126062;28;20020;-37
2021/09/19 08:15:46;;;;;;;1.30;1.20;;;22.70;71.10;;;;;;5126235;28;20035;-37
2021/09/19 08:18:13;;;;;;;1.48;1.38;;;22.70;71.80;;;;;;5126088;28;20023;-37
2021/09/19 08:20:39;;;;;;;1.60;1.50;;;22.70;71.90;;;;;;5126260;28;20027;-38
2021/09/19 08:23:05;;;;;;;1.77;1.58;;;22.70;71.90;;;;;;5126698;28;20019;-37
2021/09/19 08:25:31;;;;;;;1.73;1.63;;;22.70;71.90;;;;;;5126227;28;20066;-37
2021/09/19 08:27:57;;;;;;;1.83;1.73;;;22.70;71.80;;;;;;5126585;28;20085;-37
2021/09/19 08:30:23;;;;;;;1.73;1.55;;;22.60;71.70;;;;;;5126496;28;20023;-37
2021/09/19 08:32:50;;;;;;;1.85;1.70;;;22.70;71.60;;;;;;5126600;28;20027;-37
2021/09/19 08:35:16;;;;;;;1.90;1.80;;;22.70;71.60;;;;;;5126350;28;20055;-37
2021/09/19 08:37:42;;;;;;;2.30;1.75;;;22.60;71.50;;;;;;5126601;28;20024;-37
2021/09/19 08:40:10;;;;;;;1.75;1.65;;;22.60;71.50;;;;;;5126418;28;20450;-37
2021/09/19 08:42:37;;;;;;;2.65;1.58;;;22.60;71.50;;;;;;5108356;28;20036;-37
2021/09/19 08:45:04;;;;;;;1.80;1.60;;;22.70;71.60;;;;;;5107906;28;20028;-37
2021/09/19 08:47:31;;;;;;;1.80;1.70;;;22.70;71.50;;;;;;5126205;28;20046;-37
2021/09/19 08:50:00;;;;;;;1.77;1.67;;;22.60;71.50;;;;;;5125156;28;20078;-37
2021/09/19 08:52:26;;;;;;;1.80;1.70;;;22.70;71.70;;;;;;5126219;28;20028;-37
2021/09/19 08:54:52;;;;;;;1.65;1.55;;;22.70;71.70;;;;;;5125881;28;20403;-37
2021/09/19 08:57:18;;;;;;;2.10;1.65;;;22.70;71.70;;;;;;5126261;28;20035;-37
2021/09/19 08:59:46;;;;;;;1.60;1.50;;;22.60;71.70;;;;;;5126243;28;20027;-41
2021/09/19 09:02:14;;;;;;;1.80;1.70;;;22.70;71.80;;;;;;5126042;28;20047;-37
2021/09/19 09:04:41;;;;;;;1.80;1.70;;;22.60;71.70;;;;;;5125720;28;20028;-37
2021/09/19 09:07:07;;;;;;;2.97;1.70;;;22.70;71.80;;;;;;5125993;28;20503;-37
2021/09/19 09:09:34;;;;;;;1.80;1.63;;;22.70;71.80;;;;;;5126178;28;20101;-37
2021/09/19 09:12:11;;;;;;;2.13;1.90;;;22.70;71.50;;;;;;5125621;28;20015;-38
2021/09/19 09:14:57;;;;;;;2.03;1.80;;;22.70;71.00;;;;;;5107415;28;20047;-37
2021/09/19 09:17:28;;;;;;;1.88;1.77;;;22.70;71.10;;;;;;5113202;28;20084;-37
2021/09/19 09:19:58;;;;;;;1.90;1.80;;;22.70;71.60;;;;;;5104454;28;20027;-37
2021/09/19 09:22:33;;;;;;;1.95;1.85;;;22.60;71.90;;;;;;5125577;28;20023;-37
2021/09/19 09:25:14;;;;;;;2.22;1.83;;;22.70;71.90;;;;;;5125408;28;20024;-37
2021/09/19 09:27:45;;;;;;;1.50;1.40;;;22.70;71.90;;;;;;5125277;28;20015;-37
2021/09/19 09:30:16;;;;;;;1.80;1.65;;;22.70;71.90;;;;;;5125095;28;20038;-37
2021/09/19 09:33:05;;;;;;;2.00;1.75;;;22.70;71.80;;;;;;5125546;28;20023;-37
2021/09/19 09:35:40;;;;;;;2.33;1.60;;;22.70;71.70;;;;;;5114506;28;20050;-37
2021/09/19 09:38:25;;;;;;;1.60;1.50;;;22.70;71.60;;;;;;5125614;28;20022;-37
2021/09/19 09:40:51;;;;;;;2.05;1.70;;;22.70;71.60;;;;;;5125628;28;20024;-37
2021/09/19 09:43:19;;;;;;;1.80;1.70;;;22.70;71.60;;;;;;5125346;28;20076;-37
2021/09/19 09:45:47;;;;;;;1.73;1.63;;;22.70;71.60;;;;;;5125171;28;20114;-37
2021/09/19 09:48:27;;;;;;;1.45;1.35;;;22.70;71.60;;;;;;5124195;28;20035;-37
2021/09/19 09:51:01;;;;;;;1.73;1.63;;;22.70;71.60;;;;;;5116538;28;20035;-37
2021/09/19 09:53:28;;;;;;;2.10;1.88;;;22.70;71.60;;;;;;5121721;28;20106;-37
2021/09/19 09:55:54;;;;;;;2.03;1.80;;;22.70;71.60;;;;;;5124285;28;20024;-37
2021/09/19 09:58:21;;;;;;;1.98;1.85;;;22.70;71.70;;;;;;5122631;28;20108;-37
2021/09/19 10:00:53;;;;;;;1.80;1.70;;;22.70;71.60;;;;;;5123466;28;20039;-38
2021/09/19 10:03:19;;;;;;;1.88;1.77;;;22.70;71.70;;;;;;5105687;28;20100;-37
2021/09/19 10:05:45;;;;;;;1.88;1.77;;;22.70;71.80;;;;;;5120799;28;20031;-37
2021/09/19 10:08:11;;;;;;;1.73;1.63;;;22.70;71.80;;;;;;5115990;28;20024;-37
2021/09/19 10:10:40;;;;;;;2.07;1.90;;;22.70;71.90;;;;;;5123529;28;20054;-37
2021/09/19 10:13:07;;;;;;;2.40;1.98;;;22.70;71.90;;;;;;5124248;27;20036;-37
2021/09/19 10:15:33;;;;;;;1.60;1.50;;;22.70;71.90;;;;;;5124134;28;20141;-37
2021/09/19 10:17:59;;;;;;;1.63;1.52;;;22.70;72.00;;;;;;5112785;27;20027;-37
2021/09/19 10:20:36;;;;;;;2.00;1.90;;;22.70;71.90;;;;;;5104182;28;20118;-37
2021/09/19 10:23:05;;;;;;;2.17;1.80;;;22.70;71.90;;;;;;5121527;28;20019;-37
2021/09/19 10:25:41;;;;;;;1.90;1.80;;;22.70;71.90;;;;;;5124169;28;20027;-37
2021/09/19 10:28:32;;;;;;;2.10;1.90;;;22.70;72.00;;;;;;5123604;28;20032;-37
2021/09/19 10:31:11;;;;;;;2.00;1.90;;;22.70;72.00;;;;;;5093915;28;20012;-37
2021/09/19 10:33:42;;;;;;;2.60;1.58;;;22.70;72.00;;;;;;5124256;28;20031;-37
2021/09/19 10:36:34;;;;;;;1.90;1.80;;;22.70;72.00;;;;;;5123714;28;20143;-37
2021/09/19 10:39:17;;;;;;;2.05;1.95;;;22.70;72.00;;;;;;5111725;27;20396;-37
2021/09/19 10:42:14;;;;;;;1.83;1.73;;;22.70;71.20;;;;;;5124099;28;20034;-37
2021/09/19 10:44:43;;;;;;;1.80;1.70;;;22.70;70.50;;;;;;5122452;28;20031;-37
2021/09/19 10:47:10;;;;;;;1.52;1.42;;;22.70;70.50;;;;;;5123251;28;20032;-37
2021/09/19 10:49:36;;;;;;;1.98;1.88;;;22.70;71.30;;;;;;5112783;28;20039;-37
2021/09/19 10:52:02;;;;;;;2.00;1.77;;;22.70;71.70;;;;;;5118192;28;20031;-37
2021/09/19 10:54:50;;;;;;;1.75;1.65;;;22.70;71.90;;;;;;5123330;28;20027;-37
2021/09/19 10:57:30;;;;;;;1.75;1.65;;;22.70;71.90;;;;;;5110940;28;20151;-37
2021/09/19 11:00:08;;;;;;;1.80;1.70;;;22.70;71.90;;;;;;5104623;28;20050;-37
2021/09/19 11:02:38;;;;;;;1.90;1.80;;;22.70;71.80;;;;;;5123552;28;20050;-37
2021/09/19 11:05:27;;;;;;;2.22;1.85;;;22.70;72.50;;;;;;5123398;28;20023;-37
2021/09/19 11:08:10;;;;;;;2.03;1.90;;;22.70;71.70;;;;;;5123222;28;20024;-37
2021/09/19 11:10:56;;;;;;;1.95;1.85;;;22.70;71.60;;;;;;5122342;28;20023;-37
2021/09/19 11:13:32;;;;;;;1.80;1.70;;;22.70;71.60;;;;;;5122963;28;20047;-37
2021/09/19 11:16:04;;;;;;;2.00;1.80;;;22.70;71.60;;;;;;5104525;28;20039;-37
2021/09/19 11:18:40;;;;;;;1.67;1.58;;;22.70;71.50;;;;;;5106459;28;20043;-37
2021/09/19 11:21:20;;;;;;;2.28;2.08;;;22.70;71.50;;;;;;5123261;28;21145;-37
2021/09/19 11:23:57;;;;;;;2.13;1.90;;;22.70;71.50;;;;;;5123269;28;20114;-37
2021/09/19 11:26:33;;;;;;;3.25;2.00;;;22.70;71.50;;;;;;5122586;28;20027;-37
2021/09/19 11:29:01;;;;;;;1.85;1.75;;;22.70;71.50;;;;;;5123303;28;20026;-38
2021/09/19 11:31:27;;;;;;;1.80;1.70;;;22.70;71.50;;;;;;5105564;28;20032;-37
2021/09/19 11:33:53;;;;;;;2.08;1.95;;;22.70;71.60;;;;;;5123153;28;20092;-37
2021/09/19 11:36:21;;;;;;;2.20;2.00;;;22.70;71.50;;;;;;5122704;28;20034;-37
2021/09/19 11:38:49;;;;;;;2.25;2.05;;;22.70;71.60;;;;;;5122943;28;20046;-37
2021/09/19 11:41:16;;;;;;;1.90;1.80;;;22.70;71.50;;;;;;5123141;28;20031;-37
2021/09/19 11:43:43;;;;;;;2.10;1.60;;;22.70;71.50;;;;;;5105008;28;20108;-37
2021/09/19 11:46:10;;;;;;;2.03;1.92;;;22.70;71.50;;;;;;5123098;28;20043;-37
2021/09/19 11:48:38;;;;;;;2.15;2.00;;;22.70;71.70;;;;;;5123055;28;20026;-37
2021/09/19 11:51:03;;;;;;;;;;;22.70;71.60;;;;;;5123345;28;20051;-37
2021/09/19 11:53:30;;;;;;;2.85;2.00;;;22.70;71.50;;;;;;5123278;28;19907;-37
2021/09/19 11:55:56;;;;;;;1.67;1.58;;;22.70;71.60;;;;;;5122787;28;20088;-37
2021/09/19 11:58:22;;;;;;;1.70;1.60;;;22.70;71.70;;;;;;5123213;28;20031;-37
2021/09/19 12:00:59;;;;;;;1.80;1.70;;;22.70;71.70;;;;;;5123034;28;20028;-37
2021/09/19 12:03:25;;;;;;;1.80;1.70;;;22.70;71.70;;;;;;5123198;28;20028;-37
2021/09/19 12:05:52;;;;;;;1.75;1.65;;;22.70;71.70;;;;;;5123223;28;20038;-37
2021/09/19 12:08:18;;;;;;;;;;;22.70;71.80;;;;;;5123368;28;20030;-37
2021/09/19 12:10:46;;;;;;;1.90;1.80;;;22.70;71.70;;;;;;5123041;28;19930;-37
2021/09/19 12:13:23;;;;;;;1.98;1.88;;;22.70;71.80;;;;;;5123188;28;20020;-38
2021/09/19 12:16:12;;;;;;;1.80;1.70;;;22.70;71.80;;;;;;5122850;28;20035;-37
2021/09/19 12:18:40;;;;;;;1.77;1.67;;;22.70;71.80;;;;;;5121446;28;20499;-37
2021/09/19 12:21:07;;;;;;;2.00;1.67;;;22.70;71.80;;;;;;5122151;28;20035;-38
2021/09/19 12:23:54;;;;;;;2.80;1.95;;;22.70;71.90;;;;;;5122944;28;20026;-37
2021/09/19 12:26:22;;;;;;;1.80;1.70;;;22.70;71.90;;;;;;5122783;28;20019;-37
2021/09/19 12:28:53;;;;;;;1.80;1.70;;;22.70;71.90;;;;;;5126361;28;20139;-37
2021/09/19 12:31:37;;;;;;;2.42;2.05;;;22.70;71.90;;;;;;5108553;28;20028;-37
2021/09/19 12:34:07;;;;;;;2.15;1.70;;;22.70;72.00;;;;;;5126551;28;20024;-37
2021/09/19 12:36:44;;;;;;;2.25;2.05;;;22.70;72.00;;;;;;5126444;28;20039;-38
2021/09/19 12:39:18;;;;;;;2.00;1.90;;;22.70;72.10;;;;;;5126508;28;20110;-38
2021/09/19 12:41:45;;;;;;;2.20;2.00;;;22.70;72.10;;;;;;5126473;28;20450;-37
2021/09/19 12:44:15;;;;;;;1.48;1.38;;;22.70;72.00;;;;;;5126625;28;20586;-37
2021/09/19 12:46:49;;;;;;;1.92;1.83;;;22.70;72.10;;;;;;5125957;28;20039;-37
2021/09/19 12:49:27;;;;;;;1.80;1.70;;;22.70;72.20;;;;;;5126052;28;20035;-38
2021/09/19 12:52:15;;;;;;;1.90;1.80;;;22.70;72.20;;;;;;5126148;28;20028;-37